createdAt,value
2022-12-25T00:00:32.349Z,99227.20
2022-12-25T00:03:18.833Z,99217.40
2022-12-25T00:05:45.491Z,99236.40
2022-12-25T00:08:12.195Z,99235.60
2022-12-25T00:10:44.670Z,99235.80
2022-12-25T00:13:11.649Z,99230.60
2022-12-25T00:15:41.239Z,99236.40
2022-12-25T00:18:07.899Z,99253.20
2022-12-25T00:20:35.218Z,99263.20
2022-12-25T00:23:01.895Z,99261.60
2022-12-25T00:25:28.457Z,99258.80
2022-12-25T00:27:54.829Z,99263.80
2022-12-25T00:30:21.365Z,99261.60
2022-12-25T00:32:48.148Z,99262.60
2022-12-25T00:35:14.897Z,99265.20
2022-12-25T00:37:41.375Z,99265.20
2022-12-25T00:40:08.842Z,99268.80
2022-12-25T00:42:35.396Z,99271.00
2022-12-25T00:45:02.050Z,99278.00
2022-12-25T00:47:28.843Z,99283.40
2022-12-25T00:49:55.540Z,99284.40
2022-12-25T00:52:22.217Z,99286.00
2022-12-25T00:54:48.669Z,99288.20
2022-12-25T00:57:15.168Z,99293.40
2022-12-25T00:59:41.565Z,99293.20
2022-12-25T01:02:26.324Z,99297.80
2022-12-25T01:04:55.131Z,99298.20
2022-12-25T01:07:24.060Z,99304.00
2022-12-25T01:10:09.300Z,99307.80
2022-12-25T01:12:39.884Z,99298.60
2022-12-25T01:15:07.394Z,99310.00
2022-12-25T01:17:34.087Z,99305.60
2022-12-25T01:20:00.607Z,99307.80
2022-12-25T01:22:27.034Z,99312.00
2022-12-25T01:24:53.489Z,99320.60
2022-12-25T01:27:20.180Z,99319.80
2022-12-25T01:29:46.849Z,99322.60
2022-12-25T01:32:13.449Z,99322.40
2022-12-25T01:34:40.149Z,99330.00
2022-12-25T01:37:06.822Z,99334.40
2022-12-25T01:39:33.629Z,99330.40
2022-12-25T01:42:00.093Z,99328.00
2022-12-25T01:44:35.891Z,99312.00
2022-12-25T01:47:03.790Z,99306.80
2022-12-25T01:49:30.369Z,99311.60
2022-12-25T01:52:05.319Z,99320.00
2022-12-25T01:54:35.679Z,99322.40
2022-12-25T01:57:04.733Z,99320.00
2022-12-25T01:59:31.136Z,99323.00
2022-12-25T02:01:57.856Z,99316.60
2022-12-25T02:04:38.515Z,99312.20
2022-12-25T02:07:18.204Z,99312.40
2022-12-25T02:09:45.084Z,99318.00
2022-12-25T02:12:28.782Z,99321.40
2022-12-25T02:15:04.617Z,99324.20
2022-12-25T02:18:21.504Z,99329.40
2022-12-25T02:20:55.354Z,99332.60
2022-12-25T02:24:15.444Z,99334.80
2022-12-25T02:27:06.069Z,99336.20
2022-12-25T02:30:06.980Z,99338.00
2022-12-25T02:32:44.519Z,99345.00
2022-12-25T02:35:25.159Z,99346.00
2022-12-25T02:37:52.394Z,99342.00
2022-12-25T02:40:39.034Z,99338.80
2022-12-25T02:43:31.197Z,99347.60
2022-12-25T02:46:24.476Z,99347.00
2022-12-25T02:49:22.823Z,99353.00
2022-12-25T02:52:14.348Z,99360.20
2022-12-25T02:55:06.039Z,99357.80
2022-12-25T02:57:55.523Z,99360.20
2022-12-25T03:00:41.199Z,99355.20
2022-12-25T03:03:27.590Z,99352.20
2022-12-25T03:06:14.558Z,99359.40
2022-12-25T03:08:41.686Z,99369.00
2022-12-25T03:11:29.300Z,99367.40
2022-12-25T03:14:21.043Z,99369.60
2022-12-25T03:16:49.804Z,99370.80
2022-12-25T03:19:36.083Z,99367.80
2022-12-25T03:22:21.696Z,99376.20
2022-12-25T03:25:12.266Z,99379.20
2022-12-25T03:27:38.822Z,99377.60
2022-12-25T03:30:24.708Z,99384.20
2022-12-25T03:32:57.951Z,99389.40
2022-12-25T03:35:30.668Z,99388.60
2022-12-25T03:38:29.024Z,99384.20
2022-12-25T03:41:33.398Z,99379.40
2022-12-25T03:44:44.775Z,99373.80
2022-12-25T03:47:51.408Z,99381.20
2022-12-25T03:50:46.584Z,99378.40
2022-12-25T03:53:38.056Z,99385.00
2022-12-25T03:56:23.530Z,99390.40
2022-12-25T03:59:19.365Z,99391.60
2022-12-25T04:02:09.421Z,99394.20
2022-12-25T04:04:55.128Z,99397.00
2022-12-25T04:07:40.135Z,99399.40
2022-12-25T04:10:26.307Z,99402.80
2022-12-25T04:13:11.392Z,99409.60
2022-12-25T04:15:56.480Z,99416.60
2022-12-25T04:18:42.163Z,99415.60
2022-12-25T04:21:27.327Z,99413.60
2022-12-25T04:24:12.361Z,99414.80
2022-12-25T04:26:57.384Z,99409.80
2022-12-25T04:29:45.205Z,99412.80
2022-12-25T04:32:30.337Z,99413.80
2022-12-25T04:35:15.308Z,99413.20
2022-12-25T04:37:41.685Z,99421.60
2022-12-25T04:40:08.837Z,99426.20
2022-12-25T04:42:35.545Z,99423.40
2022-12-25T04:45:02.147Z,99421.20
2022-12-25T04:47:28.791Z,99420.00
2022-12-25T04:49:55.311Z,99420.60
2022-12-25T04:52:21.835Z,99420.00
2022-12-25T04:54:48.315Z,99422.80
2022-12-25T04:57:15.720Z,99428.20
2022-12-25T04:59:42.332Z,99423.40
2022-12-25T05:02:08.991Z,99422.20
2022-12-25T05:04:35.581Z,99428.00
2022-12-25T05:07:02.182Z,99427.40
2022-12-25T05:09:28.819Z,99436.40
2022-12-25T05:11:55.279Z,99440.00
2022-12-25T05:14:21.679Z,99442.20
2022-12-25T05:16:48.285Z,99440.80
2022-12-25T05:19:14.972Z,99439.20
2022-12-25T05:21:41.612Z,99439.60
2022-12-25T05:24:08.109Z,99439.00
2022-12-25T05:26:34.612Z,99454.80
2022-12-25T05:29:01.067Z,99460.00
2022-12-25T05:31:27.668Z,99466.60
2022-12-25T05:33:54.312Z,99470.00
2022-12-25T05:36:20.899Z,99474.40
2022-12-25T05:38:47.394Z,99473.20
2022-12-25T05:41:13.959Z,99465.60
2022-12-25T05:43:40.467Z,99467.00
2022-12-25T05:46:08.902Z,99465.40
2022-12-25T05:48:36.141Z,99477.40
2022-12-25T05:51:11.301Z,99475.80
2022-12-25T05:53:38.091Z,99476.00
2022-12-25T05:56:06.058Z,99480.20
2022-12-25T05:58:33.285Z,99487.00
2022-12-25T06:00:59.857Z,99488.60
2022-12-25T06:03:26.566Z,99488.40
2022-12-25T06:05:53.268Z,99494.40
2022-12-25T06:08:19.840Z,99500.20
2022-12-25T06:10:46.433Z,99501.20
2022-12-25T06:13:13.054Z,99500.60
2022-12-25T06:15:40.770Z,99501.00
2022-12-25T06:18:07.509Z,99495.80
2022-12-25T06:20:34.286Z,99502.80
2022-12-25T06:23:00.926Z,99498.80
2022-12-25T06:25:27.613Z,99506.80
2022-12-25T06:27:54.064Z,99506.00
2022-12-25T06:30:20.596Z,99511.20
2022-12-25T06:32:47.261Z,99519.20
2022-12-25T06:35:13.877Z,99523.00
2022-12-25T06:37:40.324Z,99527.80
2022-12-25T06:40:09.371Z,99527.00
2022-12-25T06:42:36.043Z,99538.60
2022-12-25T06:45:02.582Z,99541.00
2022-12-25T06:47:29.152Z,99536.00
2022-12-25T06:49:55.766Z,99549.60
2022-12-25T06:52:22.310Z,99558.00
2022-12-25T06:54:48.877Z,99561.80
2022-12-25T06:57:15.208Z,99567.00
2022-12-25T06:59:41.887Z,99571.20
2022-12-25T07:02:15.793Z,99572.40
2022-12-25T07:04:42.474Z,99574.20
2022-12-25T07:07:09.652Z,99576.60
2022-12-25T07:09:37.977Z,99580.00
2022-12-25T07:12:12.585Z,99578.80
2022-12-25T07:14:39.109Z,99591.80
2022-12-25T07:17:06.091Z,99595.40
2022-12-25T07:19:32.493Z,99606.00
2022-12-25T07:21:59.060Z,99603.40
2022-12-25T07:24:25.560Z,99617.20
2022-12-25T07:26:52.084Z,99626.00
2022-12-25T07:29:18.987Z,99618.60
2022-12-25T07:31:46.193Z,99623.20
2022-12-25T07:34:12.609Z,99620.60
2022-12-25T07:36:39.225Z,99628.80
2022-12-25T07:39:05.938Z,99627.60
2022-12-25T07:41:32.404Z,99629.80
2022-12-25T07:44:12.671Z,99634.20
2022-12-25T07:46:39.211Z,99636.80
2022-12-25T07:49:05.649Z,99636.80
2022-12-25T07:51:32.362Z,99638.20
2022-12-25T07:53:58.960Z,99637.00
2022-12-25T07:56:25.538Z,99632.00
2022-12-25T07:58:52.061Z,99636.60
2022-12-25T08:01:23.819Z,99640.40
2022-12-25T08:03:55.649Z,99636.80
2022-12-25T08:06:26.048Z,99644.80
2022-12-25T08:08:52.568Z,99640.40
2022-12-25T08:11:19.065Z,99639.60
2022-12-25T08:13:45.414Z,99644.80
2022-12-25T08:16:12.056Z,99654.60
2022-12-25T08:18:38.992Z,99652.60
2022-12-25T08:21:12.036Z,99653.60
2022-12-25T08:23:41.007Z,99648.00
2022-12-25T08:26:19.408Z,99643.00
2022-12-25T08:28:46.412Z,99651.00
2022-12-25T08:31:16.753Z,99656.60
2022-12-25T08:33:43.663Z,99654.00
2022-12-25T08:36:10.819Z,99650.40
2022-12-25T08:38:37.622Z,99654.00
2022-12-25T08:41:04.312Z,99655.60
2022-12-25T08:43:30.851Z,99658.80
2022-12-25T08:45:57.412Z,99664.20
2022-12-25T08:48:23.911Z,99664.00
2022-12-25T08:50:51.163Z,99664.40
2022-12-25T08:53:17.927Z,99662.00
2022-12-25T08:55:44.692Z,99665.40
2022-12-25T08:58:11.363Z,99666.20
2022-12-25T09:00:37.995Z,99664.60
2022-12-25T09:03:04.844Z,99666.60
2022-12-25T09:05:35.022Z,99673.60
2022-12-25T09:08:01.651Z,99675.80
2022-12-25T09:10:28.603Z,99679.00
2022-12-25T09:12:55.135Z,99678.60
2022-12-25T09:15:21.710Z,99676.40
2022-12-25T09:17:48.417Z,99673.00
2022-12-25T09:20:15.067Z,99680.00
2022-12-25T09:22:41.733Z,99681.60
2022-12-25T09:25:08.854Z,99681.60
2022-12-25T09:27:35.554Z,99679.60
2022-12-25T09:30:02.185Z,99681.00
2022-12-25T09:32:28.698Z,99689.40
2022-12-25T09:34:55.257Z,99689.60
2022-12-25T09:37:21.712Z,99689.00
2022-12-25T09:39:48.290Z,99688.60
2022-12-25T09:42:19.532Z,99684.40
2022-12-25T09:45:16.451Z,99691.80
2022-12-25T09:47:44.173Z,99693.40
2022-12-25T09:50:32.441Z,99704.80
2022-12-25T09:53:39.097Z,99705.80
2022-12-25T09:56:12.196Z,99702.00
2022-12-25T09:58:38.961Z,99700.80
2022-12-25T10:01:11.755Z,99690.20
2022-12-25T10:04:14.966Z,99697.40
2022-12-25T10:06:50.742Z,99703.40
2022-12-25T10:09:48.201Z,99695.00
2022-12-25T10:12:26.663Z,99696.80
2022-12-25T10:15:25.042Z,99689.40
2022-12-25T10:18:12.845Z,99685.20
2022-12-25T10:20:48.651Z,99688.80
2022-12-25T10:23:25.525Z,99693.80
2022-12-25T10:25:52.337Z,99692.20
2022-12-25T10:28:39.303Z,99688.40
2022-12-25T10:31:24.279Z,99690.60
2022-12-25T10:33:52.092Z,99699.20
2022-12-25T10:36:21.460Z,99695.60
2022-12-25T10:38:48.450Z,99689.00
2022-12-25T10:41:56.258Z,99686.80
2022-12-25T10:44:25.784Z,99680.20
2022-12-25T10:46:55.475Z,99672.40
2022-12-25T10:49:24.474Z,99677.60
2022-12-25T10:51:51.254Z,99670.60
2022-12-25T10:54:35.068Z,99671.00
2022-12-25T10:57:03.163Z,99672.80
2022-12-25T10:59:34.347Z,99673.00
2022-12-25T11:02:18.704Z,99671.00
2022-12-25T11:04:45.466Z,99673.80
2022-12-25T11:07:30.489Z,99675.80
2022-12-25T11:10:35.216Z,99673.40
2022-12-25T11:13:02.460Z,99665.40
2022-12-25T11:15:41.921Z,99663.00
2022-12-25T11:18:31.853Z,99664.60
2022-12-25T11:21:01.342Z,99664.60
2022-12-25T11:23:30.180Z,99671.00
2022-12-25T11:26:07.850Z,99673.80
2022-12-25T11:28:36.383Z,99665.20
2022-12-25T11:31:20.501Z,99664.80
2022-12-25T11:34:02.796Z,99659.80
2022-12-25T11:36:44.346Z,99654.80
2022-12-25T11:39:21.038Z,99661.20
2022-12-25T11:41:47.948Z,99660.80
2022-12-25T11:44:27.028Z,99658.40
2022-12-25T11:46:54.558Z,99652.00
2022-12-25T11:49:21.235Z,99647.60
2022-12-25T11:51:51.048Z,99647.60
2022-12-25T11:54:24.797Z,99648.80
2022-12-25T11:56:51.559Z,99650.40
2022-12-25T11:59:32.825Z,99649.40
2022-12-25T12:02:25.055Z,99661.00
2022-12-25T12:05:21.119Z,99663.80
2022-12-25T12:07:59.772Z,99668.80
2022-12-25T12:10:42.957Z,99669.80
2022-12-25T12:13:32.789Z,99671.00
2022-12-25T12:15:59.379Z,99674.60
2022-12-25T12:18:25.978Z,99682.40
2022-12-25T12:21:17.056Z,99675.00
2022-12-25T12:24:17.067Z,99680.80
2022-12-25T12:26:44.332Z,99685.60
2022-12-25T12:29:38.940Z,99686.40
2022-12-25T12:32:13.873Z,99690.00
2022-12-25T12:34:41.971Z,99691.40
2022-12-25T12:37:35.766Z,99686.00
2022-12-25T12:40:03.147Z,99684.80
2022-12-25T12:42:32.354Z,99686.80
2022-12-25T12:45:08.524Z,99681.80
2022-12-25T12:47:41.654Z,99674.60
2022-12-25T12:50:35.269Z,99672.40
2022-12-25T12:53:23.673Z,99668.00
2022-12-25T12:55:50.953Z,99681.20
2022-12-25T12:58:49.234Z,99677.60
2022-12-25T13:01:37.331Z,99669.60
2022-12-25T13:04:25.060Z,99677.40
2022-12-25T13:07:13.918Z,99676.60
2022-12-25T13:10:08.822Z,99675.00
2022-12-25T13:12:35.406Z,99684.20
2022-12-25T13:15:01.824Z,99679.40
2022-12-25T13:17:28.218Z,99684.80
2022-12-25T13:19:58.907Z,99683.60
2022-12-25T13:22:34.322Z,99678.00
2022-12-25T13:25:08.215Z,99678.60
2022-12-25T13:27:34.813Z,99678.40
2022-12-25T13:30:12.821Z,99675.20
2022-12-25T13:32:40.138Z,99678.60
2022-12-25T13:35:12.744Z,99674.60
2022-12-25T13:37:39.281Z,99679.80
2022-12-25T13:40:06.930Z,99676.20
2022-12-25T13:42:39.223Z,99683.20
2022-12-25T13:45:11.770Z,99686.60
2022-12-25T13:47:54.872Z,99693.20
2022-12-25T13:50:30.895Z,99689.80
2022-12-25T13:53:09.653Z,99698.00
2022-12-25T13:55:36.222Z,99696.80
2022-12-25T13:58:04.950Z,99694.80
2022-12-25T14:00:48.021Z,99697.60
2022-12-25T14:03:22.851Z,99698.60
2022-12-25T14:06:07.065Z,99703.00
2022-12-25T14:08:33.850Z,99710.20
2022-12-25T14:11:03.155Z,99699.00
2022-12-25T14:13:29.961Z,99695.60
2022-12-25T14:15:56.532Z,99690.00
2022-12-25T14:18:24.531Z,99685.00
2022-12-25T14:20:56.944Z,99685.80
2022-12-25T14:23:23.420Z,99686.00
2022-12-25T14:25:50.041Z,99691.60
2022-12-25T14:28:26.117Z,99698.40
2022-12-25T14:30:55.715Z,99700.00
2022-12-25T14:33:22.901Z,99699.20
2022-12-25T14:35:49.616Z,99698.80
2022-12-25T14:38:26.725Z,99714.40
2022-12-25T14:41:04.467Z,99725.00
2022-12-25T14:43:31.287Z,99724.80
2022-12-25T14:46:02.991Z,99716.00
2022-12-25T14:48:31.419Z,99716.80
2022-12-25T14:51:01.597Z,99715.00
2022-12-25T14:53:50.401Z,99709.20
2022-12-25T14:56:20.092Z,99693.80
2022-12-25T14:58:50.792Z,99690.60
2022-12-25T15:01:42.580Z,99676.80
2022-12-25T15:04:09.208Z,99674.40
2022-12-25T15:06:38.221Z,99677.20
2022-12-25T15:09:12.924Z,99674.60
2022-12-25T15:11:48.587Z,99676.20
2022-12-25T15:14:15.106Z,99679.00
2022-12-25T15:16:44.969Z,99688.00
2022-12-25T15:19:23.398Z,99689.20
2022-12-25T15:21:52.014Z,99682.00
2022-12-25T15:24:18.527Z,99682.40
2022-12-25T15:26:45.157Z,99691.00
2022-12-25T15:29:11.704Z,99704.20
2022-12-25T15:31:38.849Z,99706.40
2022-12-25T15:34:12.333Z,99708.20
2022-12-25T15:36:38.797Z,99709.20
2022-12-25T15:39:05.531Z,99704.40
2022-12-25T15:41:53.746Z,99701.20
2022-12-25T15:44:20.629Z,99700.20
2022-12-25T15:46:47.275Z,99704.00
2022-12-25T15:49:14.164Z,99697.00
2022-12-25T15:51:40.981Z,99697.80
2022-12-25T15:54:07.647Z,99695.40
2022-12-25T15:56:43.549Z,99692.00
2022-12-25T15:59:11.095Z,99694.60
2022-12-25T16:01:37.832Z,99685.00
2022-12-25T16:04:04.374Z,99686.80
2022-12-25T16:06:30.859Z,99684.80
2022-12-25T16:08:57.383Z,99686.60
2022-12-25T16:11:23.888Z,99693.00
2022-12-25T16:13:50.527Z,99694.00
2022-12-25T16:16:17.274Z,99692.20
2022-12-25T16:18:47.626Z,99696.80
2022-12-25T16:21:17.513Z,99695.40
2022-12-25T16:23:44.416Z,99690.80
2022-12-25T16:26:11.081Z,99682.20
2022-12-25T16:28:37.744Z,99673.40
2022-12-25T16:31:04.791Z,99664.80
2022-12-25T16:33:31.493Z,99656.20
2022-12-25T16:35:57.997Z,99655.20
2022-12-25T16:38:24.635Z,99653.00
2022-12-25T16:40:59.618Z,99652.40
2022-12-25T16:43:26.542Z,99636.40
2022-12-25T16:45:53.132Z,99633.40
2022-12-25T16:48:19.670Z,99633.80
2022-12-25T16:50:46.100Z,99621.40
2022-12-25T16:53:12.716Z,99604.60
2022-12-25T16:55:39.394Z,99618.00
2022-12-25T16:58:06.234Z,99622.00
2022-12-25T17:00:32.877Z,99630.40
2022-12-25T17:03:00.181Z,99620.20
2022-12-25T17:05:27.348Z,99615.00
2022-12-25T17:07:53.913Z,99622.00
2022-12-25T17:10:20.609Z,99627.00
2022-12-25T17:12:47.120Z,99632.40
2022-12-25T17:15:13.971Z,99631.60
2022-12-25T17:17:41.065Z,99625.60
2022-12-25T17:20:08.276Z,99628.80
2022-12-25T17:22:34.896Z,99637.60
2022-12-25T17:25:01.627Z,99635.00
2022-12-25T17:27:28.113Z,99629.40
2022-12-25T17:29:54.644Z,99612.00
2022-12-25T17:32:21.265Z,99612.40
2022-12-25T17:34:47.900Z,99616.80
2022-12-25T17:37:14.658Z,99614.60
2022-12-25T17:39:41.324Z,99618.60
2022-12-25T17:42:07.882Z,99638.20
2022-12-25T17:44:34.430Z,99650.80
2022-12-25T17:47:01.081Z,99636.20
2022-12-25T17:49:27.608Z,99634.80
2022-12-25T17:51:54.333Z,99630.80
2022-12-25T17:54:21.038Z,99632.20
2022-12-25T17:56:48.668Z,99638.20
2022-12-25T17:59:17.739Z,99632.20
2022-12-25T18:01:45.140Z,99633.20
2022-12-25T18:04:11.890Z,99638.60
2022-12-25T18:06:38.602Z,99639.20
2022-12-25T18:09:05.610Z,99638.00
2022-12-25T18:11:32.415Z,99634.60
2022-12-25T18:14:01.433Z,99648.60
2022-12-25T18:16:29.959Z,99644.60
2022-12-25T18:18:58.839Z,99647.00
2022-12-25T18:21:25.624Z,99648.60
2022-12-25T18:23:52.131Z,99648.00
2022-12-25T18:26:18.969Z,99645.60
2022-12-25T18:28:46.810Z,99649.80
2022-12-25T18:31:16.509Z,99651.20
2022-12-25T18:33:43.903Z,99649.40
2022-12-25T18:36:11.804Z,99644.00
2022-12-25T18:38:38.415Z,99635.40
2022-12-25T18:41:06.332Z,99616.60
2022-12-25T18:43:51.538Z,99590.80
2022-12-25T18:46:21.546Z,99586.20
2022-12-25T18:48:48.244Z,99585.80
2022-12-25T18:51:14.933Z,99568.00
2022-12-25T18:53:41.447Z,99576.40
2022-12-25T18:56:11.564Z,99572.40
2022-12-25T18:58:38.300Z,99577.00
2022-12-25T19:01:21.503Z,99570.00
2022-12-25T19:03:48.702Z,99571.20
2022-12-25T19:06:17.442Z,99577.20
2022-12-25T19:08:44.014Z,99572.80
2022-12-25T19:11:10.479Z,99564.40
2022-12-25T19:13:37.322Z,99544.20
2022-12-25T19:16:04.308Z,99528.20
2022-12-25T19:18:30.976Z,99524.40
2022-12-25T19:21:05.115Z,99521.80
2022-12-25T19:23:31.724Z,99530.40
2022-12-25T19:25:58.183Z,99540.80
2022-12-25T19:28:24.958Z,99540.60
2022-12-25T19:30:53.349Z,99540.60
2022-12-25T19:33:20.851Z,99536.20
2022-12-25T19:35:48.337Z,99550.00
2022-12-25T19:38:15.380Z,99561.80
2022-12-25T19:40:59.370Z,99562.80
2022-12-25T19:43:28.484Z,99551.80
2022-12-25T19:45:55.354Z,99540.20
2022-12-25T19:48:22.146Z,99543.40
2022-12-25T19:50:49.268Z,99538.80
2022-12-25T19:53:16.920Z,99522.00
2022-12-25T19:55:44.320Z,99516.00
2022-12-25T19:58:11.434Z,99522.40
2022-12-25T20:00:39.689Z,99525.80
2022-12-25T20:03:06.184Z,99524.80
2022-12-25T20:05:32.880Z,99525.60
2022-12-25T20:07:59.730Z,99517.60
2022-12-25T20:10:26.323Z,99507.20
2022-12-25T20:12:52.934Z,99506.00
2022-12-25T20:15:20.168Z,99511.00
2022-12-25T20:17:46.856Z,99503.00
2022-12-25T20:20:13.580Z,99492.00
2022-12-25T20:22:40.315Z,99493.20
2022-12-25T20:25:09.146Z,99493.20
2022-12-25T20:27:35.620Z,99498.40
2022-12-25T20:30:02.289Z,99498.60
2022-12-25T20:32:28.974Z,99492.80
2022-12-25T20:34:55.710Z,99493.20
2022-12-25T20:37:22.383Z,99501.60
2022-12-25T20:39:48.807Z,99486.20
2022-12-25T20:42:15.471Z,99478.40
2022-12-25T20:44:42.209Z,99482.60
2022-12-25T20:47:09.307Z,99488.80
2022-12-25T20:49:35.716Z,99488.00
2022-12-25T20:52:05.441Z,99480.80
2022-12-25T20:54:32.995Z,99471.00
2022-12-25T20:56:59.443Z,99465.00
2022-12-25T20:59:25.903Z,99474.80
2022-12-25T21:01:54.787Z,99473.60
2022-12-25T21:04:21.773Z,99470.00
2022-12-25T21:06:48.464Z,99470.40
2022-12-25T21:09:15.206Z,99470.80
2022-12-25T21:11:41.861Z,99476.40
2022-12-25T21:14:08.553Z,99468.00
2022-12-25T21:16:35.205Z,99457.80
2022-12-25T21:19:01.803Z,99453.00
2022-12-25T21:21:28.330Z,99452.00
2022-12-25T21:23:56.193Z,99452.20
2022-12-25T21:26:27.705Z,99463.80
2022-12-25T21:28:56.624Z,99458.00
2022-12-25T21:31:24.019Z,99447.40
2022-12-25T21:33:50.843Z,99445.20
2022-12-25T21:36:31.623Z,99432.60
2022-12-25T21:39:16.485Z,99428.80
2022-12-25T21:41:43.061Z,99428.40
2022-12-25T21:44:09.957Z,99416.20
2022-12-25T21:46:36.623Z,99408.40
2022-12-25T21:49:03.316Z,99402.40
2022-12-25T21:51:50.441Z,99392.00
2022-12-25T21:54:19.025Z,99397.80
2022-12-25T21:56:46.472Z,99396.60
2022-12-25T21:59:16.225Z,99393.40
2022-12-25T22:01:43.280Z,99386.20
2022-12-25T22:04:10.573Z,99375.80
2022-12-25T22:06:55.766Z,99376.80
2022-12-25T22:09:22.563Z,99371.80
2022-12-25T22:12:07.777Z,99370.80
2022-12-25T22:14:53.312Z,99372.60
2022-12-25T22:17:51.434Z,99376.60
2022-12-25T22:20:21.991Z,99377.40
2022-12-25T22:22:49.419Z,99376.40
2022-12-25T22:25:16.486Z,99376.80
2022-12-25T22:27:43.862Z,99369.00
2022-12-25T22:30:16.555Z,99366.80
2022-12-25T22:32:43.482Z,99362.40
2022-12-25T22:35:11.494Z,99353.40
2022-12-25T22:37:38.551Z,99353.60
2022-12-25T22:40:06.134Z,99350.00
2022-12-25T22:42:32.682Z,99348.80
2022-12-25T22:44:59.171Z,99341.00
2022-12-25T22:47:25.882Z,99332.40
2022-12-25T22:49:52.594Z,99326.80
2022-12-25T22:52:19.151Z,99320.80
2022-12-25T22:54:45.640Z,99321.80
2022-12-25T22:57:12.395Z,99329.00
2022-12-25T22:59:38.952Z,99328.40
2022-12-25T23:02:05.680Z,99317.80
2022-12-25T23:04:32.400Z,99323.20
2022-12-25T23:06:58.915Z,99314.20
2022-12-25T23:09:28.259Z,99311.20
2022-12-25T23:11:56.719Z,99310.00
2022-12-25T23:14:39.603Z,99308.20
2022-12-25T23:17:29.745Z,99297.00
2022-12-25T23:20:17.599Z,99286.80
2022-12-25T23:23:03.113Z,99283.20
2022-12-25T23:25:48.252Z,99278.40
2022-12-25T23:28:34.880Z,99270.00
2022-12-25T23:31:01.739Z,99270.00
2022-12-25T23:33:28.514Z,99263.00
2022-12-25T23:35:54.986Z,99260.80
2022-12-25T23:38:21.536Z,99259.40
2022-12-25T23:40:48.019Z,99255.60
2022-12-25T23:43:14.548Z,99247.00
2022-12-25T23:45:41.231Z,99244.60
2022-12-25T23:48:08.443Z,99239.60
2022-12-25T23:50:35.113Z,99246.80
2022-12-25T23:53:01.869Z,99255.20
2022-12-25T23:55:28.399Z,99260.20
2022-12-25T23:57:54.968Z,99263.60
